createdAt,value
2023-01-07T00:01:43.274Z,99078.91
2023-01-07T00:04:16.095Z,99104.25
2023-01-07T00:06:44.409Z,99052.22
2023-01-07T00:09:17.487Z,99066.38
2023-01-07T00:11:45.051Z,99102.25
2023-01-07T00:14:13.596Z,99095.41
2023-01-07T00:16:40.815Z,99041.28
2023-01-07T00:19:10.415Z,99051.47
2023-01-07T00:21:37.116Z,99043.72
2023-01-07T00:24:06.188Z,99069.00
2023-01-07T00:26:36.007Z,99006.03
2023-01-07T00:29:03.745Z,99060.22
2023-01-07T00:31:36.011Z,99044.25
2023-01-07T00:34:02.818Z,99000.00
2023-01-07T00:37:15.873Z,99022.97
2023-01-07T00:39:42.561Z,98955.59
2023-01-07T00:42:27.708Z,98941.13
2023-01-07T00:45:00.493Z,98957.16
2023-01-07T00:47:27.185Z,98899.97
2023-01-07T00:49:53.906Z,98918.53
2023-01-07T00:52:20.595Z,98934.63
2023-01-07T00:54:47.252Z,98890.03
2023-01-07T00:57:14.149Z,98915.34
2023-01-07T00:59:40.831Z,98910.38
2023-01-07T01:02:07.670Z,98905.50
2023-01-07T01:04:34.629Z,98926.69
2023-01-07T01:07:01.362Z,98923.44
2023-01-07T01:09:28.109Z,98905.50
2023-01-07T01:11:54.858Z,98922.19
2023-01-07T01:14:21.608Z,98879.31
2023-01-07T01:16:48.383Z,98884.72
2023-01-07T01:19:15.808Z,98897.97
2023-01-07T01:21:42.572Z,98880.06
2023-01-07T01:24:09.586Z,98852.53
2023-01-07T01:26:36.381Z,98817.53
2023-01-07T01:29:03.098Z,98819.25
2023-01-07T01:31:29.791Z,98795.31
2023-01-07T01:33:57.630Z,98816.72
2023-01-07T01:36:24.903Z,98820.97
2023-01-07T01:38:51.603Z,98775.19
2023-01-07T01:41:18.679Z,98846.34
2023-01-07T01:43:46.253Z,98815.97
2023-01-07T01:46:28.839Z,98802.94
2023-01-07T01:49:02.033Z,98769.19
2023-01-07T01:51:34.848Z,98793.72
2023-01-07T01:54:06.367Z,98793.88
2023-01-07T01:56:36.249Z,98826.50
2023-01-07T01:59:10.680Z,98777.75
2023-01-07T02:01:38.116Z,98763.72
2023-01-07T02:04:09.929Z,98736.41
2023-01-07T02:06:43.075Z,98767.63
2023-01-07T02:09:11.743Z,98766.22
2023-01-07T02:12:13.642Z,98709.59
2023-01-07T02:14:40.255Z,98753.81
2023-01-07T02:17:19.388Z,98771.53
2023-01-07T02:20:17.077Z,98762.19
2023-01-07T02:22:58.449Z,98668.28
2023-01-07T02:25:59.556Z,98710.97
2023-01-07T02:28:41.438Z,98760.34
2023-01-07T02:31:37.417Z,98716.06
2023-01-07T02:34:22.460Z,98757.47
2023-01-07T02:37:07.313Z,98755.22
2023-01-07T02:39:47.630Z,98724.84
2023-01-07T02:42:23.409Z,98705.44
2023-01-07T02:45:20.411Z,98709.53
2023-01-07T02:48:10.880Z,98682.34
2023-01-07T02:50:37.804Z,98686.09
2023-01-07T02:53:06.860Z,98667.19
2023-01-07T02:55:58.855Z,98641.47
2023-01-07T02:58:31.395Z,98678.75
2023-01-07T03:01:13.345Z,98688.56
2023-01-07T03:03:52.164Z,98675.00
2023-01-07T03:06:49.834Z,98677.06
2023-01-07T03:09:42.830Z,98657.16
2023-01-07T03:12:27.495Z,98675.78
2023-01-07T03:15:16.968Z,98665.34
2023-01-07T03:17:52.070Z,98605.69
2023-01-07T03:20:22.624Z,98592.53
2023-01-07T03:22:50.407Z,98573.38
2023-01-07T03:25:19.313Z,98631.22
2023-01-07T03:27:47.607Z,98599.66
2023-01-07T03:30:17.027Z,98603.66
2023-01-07T03:33:07.904Z,98577.03
2023-01-07T03:35:36.396Z,98616.03
2023-01-07T03:38:04.597Z,98595.50
2023-01-07T03:40:32.017Z,98587.53
2023-01-07T03:42:59.752Z,98532.28
2023-01-07T03:45:27.781Z,98580.69
2023-01-07T03:47:56.242Z,98453.97
2023-01-07T03:50:23.808Z,98565.22
2023-01-07T03:52:51.237Z,98514.41
2023-01-07T03:55:18.603Z,98509.22
2023-01-07T03:57:45.289Z,98474.72
2023-01-07T04:00:13.451Z,98491.31
2023-01-07T04:02:40.181Z,98446.94
2023-01-07T04:05:07.219Z,98439.84
2023-01-07T04:07:33.978Z,98477.69
2023-01-07T04:10:00.794Z,98446.88
2023-01-07T04:12:27.460Z,98453.16
2023-01-07T04:14:54.387Z,98425.56
2023-01-07T04:17:21.102Z,98406.66
2023-01-07T04:19:47.839Z,98429.22
2023-01-07T04:22:14.704Z,98426.09
2023-01-07T04:24:41.569Z,98416.41
2023-01-07T04:27:08.278Z,98429.13
2023-01-07T04:29:34.950Z,98414.28
2023-01-07T04:32:01.668Z,98409.06
2023-01-07T04:34:28.441Z,98409.72
2023-01-07T04:36:55.295Z,98396.34
2023-01-07T04:39:22.019Z,98372.66
2023-01-07T04:41:48.698Z,98384.47
2023-01-07T04:44:17.598Z,98420.78
2023-01-07T04:46:44.973Z,98360.97
2023-01-07T04:49:11.923Z,98355.53
2023-01-07T04:51:38.871Z,98411.28
2023-01-07T04:54:05.909Z,98431.31
2023-01-07T04:56:32.809Z,98418.56
2023-01-07T04:58:59.500Z,98358.66
2023-01-07T05:01:26.299Z,98365.44
2023-01-07T05:03:53.045Z,98366.78
2023-01-07T05:06:19.806Z,98341.63
2023-01-07T05:08:46.596Z,98392.13
2023-01-07T05:11:14.095Z,98371.78
2023-01-07T05:13:40.795Z,98370.72
2023-01-07T05:16:09.132Z,98345.56
2023-01-07T05:18:35.830Z,98321.66
2023-01-07T05:21:02.479Z,98337.13
2023-01-07T05:23:29.246Z,98364.75
2023-01-07T05:25:55.943Z,98346.75
2023-01-07T05:28:22.709Z,98313.72
2023-01-07T05:30:49.485Z,98322.25
2023-01-07T05:33:16.184Z,98304.56
2023-01-07T05:35:42.876Z,98302.59
2023-01-07T05:38:09.659Z,98248.84
2023-01-07T05:40:36.316Z,98254.13
2023-01-07T05:43:03.028Z,98273.81
2023-01-07T05:45:29.719Z,98250.59
2023-01-07T05:47:56.374Z,98281.91
2023-01-07T05:50:23.112Z,98269.13
2023-01-07T05:52:51.363Z,98268.53
2023-01-07T05:55:18.151Z,98315.03
2023-01-07T05:57:44.816Z,98289.84
2023-01-07T06:00:12.198Z,98273.34
2023-01-07T06:02:38.886Z,98295.09
2023-01-07T06:05:06.026Z,98267.88
2023-01-07T06:07:32.794Z,98273.59
2023-01-07T06:10:00.802Z,98264.84
2023-01-07T06:12:29.405Z,98292.41
2023-01-07T06:14:56.116Z,98274.81
2023-01-07T06:17:22.816Z,98275.72
2023-01-07T06:19:49.639Z,98258.66
2023-01-07T06:22:16.453Z,98252.00
2023-01-07T06:24:43.149Z,98285.50
2023-01-07T06:27:10.679Z,98242.25
2023-01-07T06:29:37.399Z,98281.66
2023-01-07T06:32:04.294Z,98252.91
2023-01-07T06:34:30.975Z,98243.16
2023-01-07T06:36:57.712Z,98200.94
2023-01-07T06:39:24.423Z,98294.03
2023-01-07T06:41:51.113Z,98259.22
2023-01-07T06:44:17.870Z,98218.50
2023-01-07T06:46:44.616Z,98282.44
2023-01-07T06:49:11.478Z,98226.88
2023-01-07T06:51:38.492Z,98251.28
2023-01-07T06:54:05.287Z,98234.59
2023-01-07T06:56:32.036Z,98234.03
2023-01-07T06:58:58.734Z,98183.06
2023-01-07T07:01:25.578Z,98215.84
2023-01-07T07:03:52.541Z,98219.06
2023-01-07T07:06:19.300Z,98241.44
2023-01-07T07:08:45.979Z,98242.25
2023-01-07T07:11:12.688Z,98252.84
2023-01-07T07:13:39.411Z,98240.38
2023-01-07T07:16:06.536Z,98230.59
2023-01-07T07:18:33.261Z,98247.09
2023-01-07T07:21:00.009Z,98231.53
2023-01-07T07:23:26.781Z,98207.09
2023-01-07T07:25:53.489Z,98219.97
2023-01-07T07:28:20.230Z,98282.28
2023-01-07T07:30:48.058Z,98252.38
2023-01-07T07:33:15.711Z,98247.28
2023-01-07T07:35:42.603Z,98203.13
2023-01-07T07:38:09.534Z,98187.44
2023-01-07T07:40:36.599Z,98217.22
2023-01-07T07:43:10.191Z,98233.75
2023-01-07T07:45:38.781Z,98235.50
2023-01-07T07:48:07.435Z,98256.25
2023-01-07T07:50:34.484Z,98180.66
2023-01-07T07:53:01.214Z,98197.13
2023-01-07T07:55:28.280Z,98159.47
2023-01-07T07:57:56.439Z,98126.66
2023-01-07T08:00:23.517Z,98154.41
2023-01-07T08:02:50.879Z,98153.34
2023-01-07T08:05:17.775Z,98175.59
2023-01-07T08:07:44.538Z,98190.31
2023-01-07T08:10:11.339Z,98185.06
2023-01-07T08:12:39.057Z,98180.88
2023-01-07T08:15:07.348Z,98156.06
2023-01-07T08:17:34.216Z,98146.03
2023-01-07T08:20:01.297Z,98175.44
2023-01-07T08:22:27.992Z,98123.03
2023-01-07T08:24:54.741Z,98156.09
2023-01-07T08:27:24.262Z,98142.66
2023-01-07T08:29:51.332Z,98128.81
2023-01-07T08:32:18.320Z,98144.69
2023-01-07T08:34:44.983Z,98106.63
2023-01-07T08:37:12.131Z,98131.22
2023-01-07T08:39:38.818Z,98134.19
2023-01-07T08:42:05.762Z,98100.06
2023-01-07T08:44:35.461Z,98156.28
2023-01-07T08:47:05.359Z,98184.50
2023-01-07T08:49:32.121Z,98124.69
2023-01-07T08:51:58.948Z,98131.09
2023-01-07T08:54:28.504Z,98132.13
2023-01-07T08:56:55.330Z,98157.47
2023-01-07T08:59:22.316Z,98089.94
2023-01-07T09:01:49.158Z,98115.13
2023-01-07T09:04:15.949Z,98126.47
2023-01-07T09:06:42.949Z,98130.84
2023-01-07T09:09:10.509Z,98119.78
2023-01-07T09:11:40.613Z,98123.97
2023-01-07T09:14:10.093Z,98090.78
2023-01-07T09:16:36.848Z,98136.00
2023-01-07T09:19:06.704Z,98129.22
2023-01-07T09:21:33.451Z,98144.69
2023-01-07T09:24:03.009Z,98093.47
2023-01-07T09:26:29.730Z,98120.13
2023-01-07T09:28:56.969Z,98080.19
2023-01-07T09:31:24.126Z,98121.19
2023-01-07T09:33:51.270Z,98091.94
2023-01-07T09:36:17.998Z,98077.56
2023-01-07T09:38:45.322Z,98062.63
2023-01-07T09:41:40.254Z,98131.19
2023-01-07T09:44:39.832Z,98106.09
2023-01-07T09:47:09.347Z,98100.41
2023-01-07T09:49:42.543Z,98095.41
2023-01-07T09:52:17.432Z,98072.56
2023-01-07T09:54:48.603Z,98054.50
2023-01-07T09:57:18.033Z,98103.38
2023-01-07T09:59:45.712Z,98077.09
2023-01-07T10:02:38.761Z,98115.34
2023-01-07T10:05:20.203Z,98107.78
2023-01-07T10:08:31.468Z,98050.25
2023-01-07T10:10:53.701Z,98094.59
2023-01-07T10:14:17.112Z,98060.00
2023-01-07T10:17:04.773Z,98094.72
2023-01-07T10:19:47.747Z,98058.44
2023-01-07T10:22:39.343Z,98034.22
2023-01-07T10:25:26.000Z,98061.47
2023-01-07T10:27:54.801Z,98028.41
2023-01-07T10:30:29.127Z,98072.03
2023-01-07T10:33:16.392Z,98032.22
2023-01-07T10:35:43.122Z,98045.25
2023-01-07T10:38:18.785Z,98088.31
2023-01-07T10:41:02.188Z,98081.41
2023-01-07T10:43:47.523Z,98081.53
2023-01-07T10:46:17.137Z,98070.00
2023-01-07T10:49:11.098Z,98063.59
2023-01-07T10:52:04.408Z,98061.34
2023-01-07T10:54:31.101Z,98048.63
2023-01-07T10:57:03.700Z,97988.03
2023-01-07T10:59:30.790Z,98011.09
2023-01-07T11:01:59.487Z,98000.88
2023-01-07T11:04:26.677Z,97980.66
2023-01-07T11:07:29.040Z,97986.03
2023-01-07T11:09:57.242Z,97982.59
2023-01-07T11:12:46.654Z,97992.78
2023-01-07T11:15:19.304Z,98036.38
2023-01-07T11:17:54.200Z,98039.03
2023-01-07T11:20:48.883Z,98025.59
2023-01-07T11:23:44.216Z,98029.03
2023-01-07T11:26:32.415Z,98018.22
2023-01-07T11:29:13.910Z,98032.84
2023-01-07T11:31:51.046Z,98005.88
2023-01-07T11:34:37.325Z,98024.53
2023-01-07T11:37:05.087Z,97994.13
2023-01-07T11:39:36.324Z,97995.41
2023-01-07T11:42:34.515Z,98010.38
2023-01-07T11:45:13.826Z,97993.41
2023-01-07T11:47:48.469Z,97938.81
2023-01-07T11:50:29.486Z,97970.84
2023-01-07T11:53:02.617Z,97973.25
2023-01-07T11:55:29.696Z,97934.63
2023-01-07T11:58:28.341Z,97929.06
2023-01-07T12:00:44.191Z,97948.03
2023-01-07T12:03:13.219Z,97920.16
2023-01-07T12:05:44.477Z,97905.66
2023-01-07T12:08:22.797Z,97896.66
2023-01-07T12:11:05.978Z,97910.91
2023-01-07T12:13:34.523Z,97895.69
2023-01-07T12:16:05.313Z,97875.53
2023-01-07T12:18:54.624Z,97956.03
2023-01-07T12:21:27.520Z,97954.72
2023-01-07T12:24:03.201Z,97947.31
2023-01-07T12:26:38.876Z,97874.94
2023-01-07T12:29:48.006Z,97858.44
2023-01-07T12:32:29.826Z,97925.50
2023-01-07T12:35:16.090Z,97904.03
2023-01-07T12:37:53.727Z,97875.31
2023-01-07T12:40:33.029Z,97862.84
2023-01-07T12:43:13.554Z,97829.28
2023-01-07T12:45:50.020Z,97843.03
2023-01-07T12:48:27.393Z,97840.91
2023-01-07T12:50:57.362Z,97853.59
2023-01-07T12:53:34.366Z,97881.38
2023-01-07T12:56:07.221Z,97880.88
2023-01-07T12:58:45.145Z,97875.03
2023-01-07T13:01:22.450Z,97885.25
2023-01-07T13:03:58.383Z,97886.13
2023-01-07T13:06:46.881Z,97882.66
2023-01-07T13:09:20.740Z,97872.19
2023-01-07T13:12:41.464Z,97849.06
2023-01-07T13:15:05.560Z,97852.88
2023-01-07T13:17:32.595Z,97846.19
2023-01-07T13:19:59.265Z,97821.88
2023-01-07T13:22:54.031Z,97828.88
2023-01-07T13:25:47.689Z,97820.66
2023-01-07T13:28:29.460Z,97809.47
2023-01-07T13:31:08.435Z,97802.16
2023-01-07T13:33:58.262Z,97805.91
2023-01-07T13:36:51.045Z,97812.22
2023-01-07T13:39:44.181Z,97796.78
2023-01-07T13:42:27.359Z,97745.19
2023-01-07T13:45:14.696Z,97760.47
2023-01-07T13:47:51.513Z,97749.63
2023-01-07T13:50:41.972Z,97800.00
2023-01-07T13:53:14.669Z,97795.03
2023-01-07T13:55:44.347Z,97754.91
2023-01-07T13:58:29.395Z,97773.19
2023-01-07T14:01:20.046Z,97746.44
2023-01-07T14:03:49.932Z,97786.78
2023-01-07T14:06:32.210Z,97789.72
2023-01-07T14:08:58.874Z,97791.41
2023-01-07T14:11:32.657Z,97798.53
2023-01-07T14:14:21.148Z,97795.44
2023-01-07T14:16:53.820Z,97801.63
2023-01-07T14:19:23.479Z,97810.53
2023-01-07T14:21:59.117Z,97793.09
2023-01-07T14:25:03.307Z,97783.72
2023-01-07T14:27:45.159Z,97791.31
2023-01-07T14:30:37.338Z,97727.13
2023-01-07T14:33:16.663Z,97792.97
2023-01-07T14:35:52.782Z,97775.88
2023-01-07T14:38:47.016Z,97775.31
2023-01-07T14:41:16.632Z,97753.00
2023-01-07T14:43:46.116Z,97783.72
2023-01-07T14:46:24.774Z,97794.28
2023-01-07T14:49:03.764Z,97780.03
2023-01-07T14:51:36.229Z,97775.06
2023-01-07T14:54:40.361Z,97772.91
2023-01-07T14:57:20.810Z,97765.34
2023-01-07T14:59:56.457Z,97775.19
2023-01-07T15:02:47.655Z,97778.03
2023-01-07T15:05:39.203Z,97778.69
2023-01-07T15:08:29.465Z,97715.78
2023-01-07T15:11:17.925Z,97714.88
2023-01-07T15:14:14.703Z,97711.19
2023-01-07T15:16:43.575Z,97680.84
2023-01-07T15:19:10.612Z,97716.38
2023-01-07T15:21:52.458Z,97760.03
2023-01-07T15:24:37.663Z,97757.78
2023-01-07T15:27:16.326Z,97757.41
2023-01-07T15:29:55.077Z,97752.94
2023-01-07T15:32:27.768Z,97753.84
2023-01-07T15:34:54.626Z,97737.38
2023-01-07T15:37:21.775Z,97690.88
2023-01-07T15:39:53.720Z,97677.59
2023-01-07T15:42:23.638Z,97702.84
2023-01-07T15:44:58.472Z,97716.38
2023-01-07T15:47:33.867Z,97726.66
2023-01-07T15:50:21.537Z,97731.91
2023-01-07T15:53:00.170Z,97714.19
2023-01-07T15:55:28.577Z,97740.28
2023-01-07T15:58:12.750Z,97680.22
2023-01-07T16:00:39.594Z,97721.56
2023-01-07T16:03:06.423Z,97683.91
2023-01-07T16:05:37.023Z,97683.00
2023-01-07T16:08:03.976Z,97702.03
2023-01-07T16:10:33.364Z,97744.59
2023-01-07T16:13:01.430Z,97689.81
2023-01-07T16:15:34.015Z,97692.81
2023-01-07T16:18:03.835Z,97686.03
2023-01-07T16:20:34.989Z,97725.78
2023-01-07T16:23:11.031Z,97738.81
2023-01-07T16:25:45.779Z,97697.28
2023-01-07T16:28:19.566Z,97737.59
2023-01-07T16:30:47.830Z,97675.13
2023-01-07T16:33:17.537Z,97708.13
2023-01-07T16:35:46.664Z,97671.50
2023-01-07T16:38:15.635Z,97701.41
2023-01-07T16:40:42.857Z,97656.09
2023-01-07T16:43:28.226Z,97725.81
2023-01-07T16:46:09.479Z,97666.31
2023-01-07T16:48:36.257Z,97651.03
2023-01-07T16:51:02.988Z,97647.34
2023-01-07T16:53:33.507Z,97656.84
2023-01-07T16:56:12.474Z,97699.03
2023-01-07T16:58:53.807Z,97699.88
2023-01-07T17:01:34.351Z,97638.47
2023-01-07T17:04:08.189Z,97665.25
2023-01-07T17:06:43.413Z,97640.84
2023-01-07T17:09:26.588Z,97619.19
2023-01-07T17:11:54.793Z,97645.72
2023-01-07T17:14:33.824Z,97677.59
2023-01-07T17:17:18.497Z,97651.25
2023-01-07T17:20:12.582Z,97666.44
2023-01-07T17:22:40.064Z,97603.19
2023-01-07T17:25:13.081Z,97647.03
2023-01-07T17:27:57.365Z,97622.25
2023-01-07T17:30:30.741Z,97604.13
2023-01-07T17:32:57.519Z,97600.47
2023-01-07T17:35:25.547Z,97606.03
2023-01-07T17:37:53.278Z,97648.81
2023-01-07T17:40:20.748Z,97678.88
2023-01-07T17:43:08.399Z,97620.97
2023-01-07T17:45:35.469Z,97663.72
2023-01-07T17:48:02.325Z,97628.19
2023-01-07T17:50:36.592Z,97622.34
2023-01-07T17:53:04.285Z,97648.69
2023-01-07T17:55:34.635Z,97655.78
2023-01-07T17:58:01.636Z,97599.28
2023-01-07T18:00:31.074Z,97659.81
2023-01-07T18:02:58.337Z,97617.66
2023-01-07T18:05:26.500Z,97599.38
2023-01-07T18:07:53.529Z,97615.53
2023-01-07T18:10:24.626Z,97636.34
2023-01-07T18:12:51.351Z,97572.66
2023-01-07T18:15:26.030Z,97580.56
2023-01-07T18:17:53.518Z,97604.03
2023-01-07T18:20:21.222Z,97581.66
2023-01-07T18:22:48.185Z,97546.38
2023-01-07T18:25:20.203Z,97539.25
2023-01-07T18:27:47.784Z,97533.34
2023-01-07T18:30:17.716Z,97546.84
2023-01-07T18:32:44.999Z,97554.78
2023-01-07T18:35:12.640Z,97531.78
2023-01-07T18:37:39.872Z,97588.16
2023-01-07T18:40:08.143Z,97553.22
2023-01-07T18:42:35.571Z,97566.25
2023-01-07T18:45:02.691Z,97547.78
2023-01-07T18:47:29.818Z,97525.66
2023-01-07T18:49:56.697Z,97517.38
2023-01-07T18:52:24.100Z,97537.94
2023-01-07T18:54:50.895Z,97539.94
2023-01-07T18:57:17.664Z,97532.75
2023-01-07T18:59:44.685Z,97593.75
2023-01-07T19:02:17.153Z,97579.63
2023-01-07T19:04:43.931Z,97586.16
2023-01-07T19:07:10.841Z,97540.09
2023-01-07T19:09:37.639Z,97539.25
2023-01-07T19:12:05.801Z,97487.53
2023-01-07T19:14:33.313Z,97525.06
2023-01-07T19:17:00.339Z,97544.34
2023-01-07T19:19:32.053Z,97568.28
2023-01-07T19:22:00.933Z,97514.97
2023-01-07T19:24:27.660Z,97490.03
2023-01-07T19:26:54.481Z,97498.19
2023-01-07T19:29:21.193Z,97530.59
2023-01-07T19:31:48.173Z,97516.66
2023-01-07T19:34:15.469Z,97563.75
2023-01-07T19:36:46.651Z,97562.09
2023-01-07T19:39:18.205Z,97521.28
2023-01-07T19:41:44.971Z,97560.94
2023-01-07T19:44:12.527Z,97533.34
2023-01-07T19:46:40.651Z,97502.44
2023-01-07T19:49:08.370Z,97568.75
2023-01-07T19:51:36.764Z,97539.59
2023-01-07T19:54:04.482Z,97550.97
2023-01-07T19:56:31.788Z,97545.75
2023-01-07T19:58:59.720Z,97484.09
2023-01-07T20:01:28.637Z,97520.31
2023-01-07T20:03:57.642Z,97532.50
2023-01-07T20:06:29.902Z,97574.66
2023-01-07T20:08:58.322Z,97568.16
2023-01-07T20:11:25.375Z,97519.38
2023-01-07T20:13:52.516Z,97442.81
2023-01-07T20:16:22.197Z,97512.16
2023-01-07T20:18:51.638Z,97574.78
2023-01-07T20:21:21.068Z,97508.22
2023-01-07T20:23:48.289Z,97498.75
2023-01-07T20:26:18.334Z,97472.38
2023-01-07T20:28:45.086Z,97481.59
2023-01-07T20:31:14.677Z,97463.72
2023-01-07T20:33:42.426Z,97516.75
2023-01-07T20:36:20.369Z,97428.03
2023-01-07T20:38:48.049Z,97497.25
2023-01-07T20:41:24.172Z,97490.84
2023-01-07T20:43:53.537Z,97440.19
2023-01-07T20:46:21.335Z,97519.25
2023-01-07T20:48:48.882Z,97488.00
2023-01-07T20:51:16.820Z,97480.19
2023-01-07T20:53:44.323Z,97493.94
2023-01-07T20:56:12.507Z,97506.13
2023-01-07T20:58:40.014Z,97435.69
2023-01-07T21:01:10.322Z,97428.59
2023-01-07T21:03:39.044Z,97504.28
2023-01-07T21:06:09.714Z,97427.63
2023-01-07T21:08:37.063Z,97482.97
2023-01-07T21:11:04.574Z,97410.03
2023-01-07T21:13:31.545Z,97385.75
2023-01-07T21:16:05.899Z,97357.03
2023-01-07T21:18:37.406Z,97337.16
2023-01-07T21:21:11.135Z,97393.91
2023-01-07T21:23:41.296Z,97420.25
2023-01-07T21:26:09.308Z,97377.22
2023-01-07T21:28:36.766Z,97344.38
2023-01-07T21:31:06.483Z,97342.59
2023-01-07T21:33:33.413Z,97396.34
2023-01-07T21:36:00.237Z,97366.53
2023-01-07T21:38:27.410Z,97295.09
2023-01-07T21:40:54.203Z,97352.50
2023-01-07T21:43:20.936Z,97340.78
2023-01-07T21:45:47.818Z,97424.41
2023-01-07T21:48:14.576Z,97356.44
2023-01-07T21:50:41.326Z,97360.91
2023-01-07T21:53:08.277Z,97314.69
2023-01-07T21:55:38.536Z,97403.00
2023-01-07T21:58:05.250Z,97386.69
2023-01-07T22:00:31.990Z,97340.78
2023-01-07T22:02:58.644Z,97354.56
2023-01-07T22:05:25.312Z,97360.41
2023-01-07T22:07:52.071Z,97380.56
2023-01-07T22:10:18.802Z,97367.75
2023-01-07T22:12:45.456Z,97321.09
2023-01-07T22:15:12.167Z,97391.56
2023-01-07T22:17:39.246Z,97344.97
2023-01-07T22:20:06.638Z,97314.44
2023-01-07T22:22:35.615Z,97292.41
2023-01-07T22:25:04.045Z,97351.25
2023-01-07T22:27:30.844Z,97293.84
2023-01-07T22:29:58.097Z,97306.75
2023-01-07T22:32:24.788Z,97300.13
2023-01-07T22:34:51.495Z,97301.66
2023-01-07T22:37:20.999Z,97299.63
2023-01-07T22:39:54.181Z,97341.28
2023-01-07T22:42:23.094Z,97370.78
2023-01-07T22:44:56.542Z,97344.06
2023-01-07T22:47:29.661Z,97290.53
2023-01-07T22:49:57.132Z,97300.50
2023-01-07T22:52:23.823Z,97318.63
2023-01-07T22:54:50.658Z,97323.94
2023-01-07T22:57:17.415Z,97311.78
2023-01-07T22:59:46.283Z,97277.47
2023-01-07T23:02:13.871Z,97314.25
2023-01-07T23:04:40.585Z,97272.03
2023-01-07T23:07:07.713Z,97311.28
2023-01-07T23:09:34.479Z,97343.06
2023-01-07T23:12:01.582Z,97242.59
2023-01-07T23:14:32.689Z,97330.28
2023-01-07T23:17:02.859Z,97250.19
2023-01-07T23:19:32.437Z,97264.13
2023-01-07T23:21:59.372Z,97274.28
2023-01-07T23:24:26.182Z,97281.56
2023-01-07T23:26:54.512Z,97256.63
2023-01-07T23:29:22.066Z,97283.66
2023-01-07T23:31:49.632Z,97229.09
2023-01-07T23:34:19.845Z,97264.88
2023-01-07T23:36:46.562Z,97244.56
2023-01-07T23:39:13.344Z,97162.22
2023-01-07T23:41:43.279Z,97249.19
2023-01-07T23:44:10.070Z,97219.28
2023-01-07T23:46:37.378Z,97214.13
2023-01-07T23:49:04.158Z,97236.41
2023-01-07T23:51:30.882Z,97241.91
2023-01-07T23:53:57.621Z,97253.97
2023-01-07T23:56:24.339Z,97254.97
2023-01-07T23:58:51.098Z,97290.53
